createdAt,value
2022-09-18T00:01:21.840Z,991.86
2022-09-18T00:06:21.714Z,991.82
2022-09-18T00:11:21.655Z,991.89
2022-09-18T00:16:21.641Z,991.94
2022-09-18T00:21:21.511Z,991.94
2022-09-18T00:26:21.452Z,991.96
2022-09-18T00:31:21.475Z,991.97
2022-09-18T00:36:21.322Z,992.01
2022-09-18T00:41:21.251Z,992.10
2022-09-18T00:46:21.272Z,992.08
2022-09-18T00:51:21.120Z,992.12
2022-09-18T00:56:21.060Z,992.12
2022-09-18T01:01:21.081Z,992.17
2022-09-18T01:06:20.930Z,992.27
2022-09-18T01:11:20.861Z,992.29
2022-09-18T01:16:20.829Z,992.33
2022-09-18T01:21:20.728Z,992.41
2022-09-18T01:26:20.670Z,992.53
2022-09-18T01:31:20.762Z,992.54
2022-09-18T01:36:20.541Z,992.58
2022-09-18T01:41:20.473Z,992.58
2022-09-18T01:46:20.481Z,992.58
2022-09-18T01:51:20.345Z,992.55
2022-09-18T01:56:20.288Z,992.63
2022-09-18T02:01:20.218Z,992.71
2022-09-18T02:06:20.158Z,992.71
2022-09-18T02:11:20.077Z,992.75
2022-09-18T02:16:20.116Z,992.81
2022-09-18T02:21:19.954Z,992.89
2022-09-18T02:26:19.886Z,992.86
2022-09-18T02:31:19.942Z,992.92
2022-09-18T02:36:19.758Z,992.88
2022-09-18T02:41:19.684Z,992.93
2022-09-18T02:46:19.672Z,992.87
2022-09-18T02:51:19.554Z,992.82
2022-09-18T02:56:19.494Z,992.81
2022-09-18T03:01:19.478Z,992.89
2022-09-18T03:06:19.374Z,992.91
2022-09-18T03:11:19.300Z,992.99
2022-09-18T03:16:19.309Z,993.05
2022-09-18T03:21:19.161Z,993.04
2022-09-18T03:26:19.113Z,993.02
2022-09-18T03:31:19.143Z,993.06
2022-09-18T03:36:18.975Z,993.10
2022-09-18T03:41:18.910Z,993.03
2022-09-18T03:46:18.894Z,993.07
2022-09-18T03:51:18.782Z,993.12
2022-09-18T03:56:18.722Z,993.14
2022-09-18T04:01:18.650Z,993.19
2022-09-18T04:06:18.591Z,993.22
2022-09-18T04:11:18.517Z,993.22
2022-09-18T04:16:18.518Z,993.20
2022-09-18T04:21:18.384Z,993.26
2022-09-18T04:26:18.325Z,993.27
2022-09-18T04:31:18.284Z,993.24
2022-09-18T04:36:18.193Z,993.29
2022-09-18T04:41:18.120Z,993.34
2022-09-18T04:46:18.088Z,993.39
2022-09-18T04:51:17.990Z,993.33
2022-09-18T04:56:17.933Z,993.29
2022-09-18T05:01:17.957Z,993.40
2022-09-18T05:06:17.801Z,993.48
2022-09-18T05:11:17.730Z,993.46
2022-09-18T05:16:17.731Z,993.44
2022-09-18T05:21:17.596Z,993.41
2022-09-18T05:26:17.538Z,993.42
2022-09-18T05:31:17.533Z,993.60
2022-09-18T05:36:17.408Z,993.61
2022-09-18T05:41:17.333Z,993.69
2022-09-18T05:46:17.328Z,993.81
2022-09-18T05:51:17.203Z,993.78
2022-09-18T05:56:17.144Z,993.77
2022-09-18T06:01:17.071Z,993.82
2022-09-18T06:06:17.014Z,993.80
2022-09-18T06:11:16.940Z,993.77
2022-09-18T06:16:16.962Z,993.85
2022-09-18T06:21:16.809Z,993.80
2022-09-18T06:26:16.752Z,993.71
2022-09-18T06:31:16.800Z,993.75
2022-09-18T06:36:16.628Z,993.73
2022-09-18T06:41:16.548Z,993.77
2022-09-18T06:46:16.521Z,993.79
2022-09-18T06:51:16.411Z,993.80
2022-09-18T06:56:16.353Z,993.77
2022-09-18T07:01:16.369Z,993.81
2022-09-18T07:06:16.224Z,993.78
2022-09-18T07:11:16.162Z,993.78
2022-09-18T07:16:16.128Z,993.76
2022-09-18T07:21:16.020Z,993.69
2022-09-18T07:26:15.962Z,993.70
2022-09-18T07:31:15.958Z,993.63
2022-09-18T07:36:15.831Z,993.67
2022-09-18T07:41:15.757Z,993.63
2022-09-18T07:46:15.750Z,993.64
2022-09-18T07:51:15.645Z,993.61
2022-09-18T07:56:15.567Z,993.51
2022-09-18T08:01:15.495Z,993.58
2022-09-18T08:06:15.438Z,993.58
2022-09-18T08:11:15.369Z,993.53
2022-09-18T08:16:15.368Z,993.55
2022-09-18T08:21:15.235Z,993.57
2022-09-18T08:26:20.024Z,993.58
2022-09-18T08:31:15.140Z,993.51
2022-09-18T08:36:15.052Z,993.50
2022-09-18T08:41:14.977Z,993.51
2022-09-18T08:46:14.947Z,993.57
2022-09-18T08:51:14.848Z,993.55
2022-09-18T08:56:14.792Z,993.52
2022-09-18T09:01:14.795Z,993.48
2022-09-18T09:06:14.665Z,993.63
2022-09-18T09:11:14.590Z,993.56
2022-09-18T09:16:14.627Z,993.69
2022-09-18T09:21:14.462Z,993.74
2022-09-18T09:26:14.403Z,993.76
2022-09-18T09:31:14.376Z,993.70
2022-09-18T09:36:14.274Z,993.63
2022-09-18T09:41:14.202Z,993.55
2022-09-18T09:46:17.036Z,993.37
2022-09-18T09:51:14.071Z,993.40
2022-09-18T09:56:14.013Z,993.40
2022-09-18T10:01:14.005Z,993.38
2022-09-18T10:06:13.882Z,993.36
2022-09-18T10:11:13.811Z,993.31
2022-09-18T10:16:13.850Z,993.30
2022-09-18T10:21:13.679Z,993.41
2022-09-18T10:26:13.620Z,993.46
2022-09-18T10:31:13.609Z,993.65
2022-09-18T10:36:13.487Z,993.58
2022-09-18T10:41:13.416Z,993.54
2022-09-18T10:46:13.404Z,993.44
2022-09-18T10:51:13.287Z,993.42
2022-09-18T10:56:13.228Z,993.39
2022-09-18T11:01:13.230Z,993.30
2022-09-18T11:06:13.096Z,993.25
2022-09-18T11:11:13.025Z,993.20
2022-09-18T11:16:13.078Z,993.16
2022-09-18T11:21:12.892Z,993.22
2022-09-18T11:26:12.834Z,993.23
2022-09-18T11:31:12.821Z,993.14
2022-09-18T11:36:12.704Z,993.11
2022-09-18T11:41:12.629Z,993.03
2022-09-18T11:46:12.723Z,993.02
2022-09-18T11:51:12.500Z,993.01
2022-09-18T11:56:12.442Z,992.95
2022-09-18T12:01:12.368Z,992.91
2022-09-18T12:06:12.311Z,992.83
2022-09-18T12:11:10.880Z,992.84
2022-09-18T12:16:10.867Z,992.93
2022-09-18T12:21:10.739Z,992.90
2022-09-18T12:26:10.677Z,992.96
2022-09-18T12:31:10.698Z,993.01
2022-09-18T12:36:10.543Z,992.97
2022-09-18T12:41:11.134Z,992.87
2022-09-18T12:46:11.150Z,992.89
2022-09-18T12:51:10.997Z,992.76
2022-09-18T12:56:10.932Z,992.73
2022-09-18T13:01:10.937Z,992.71
2022-09-18T13:06:10.790Z,992.76
2022-09-18T13:11:10.712Z,992.76
2022-09-18T13:16:11.460Z,992.70
2022-09-18T13:21:11.302Z,992.80
2022-09-18T13:26:11.240Z,992.76
2022-09-18T13:31:11.222Z,992.78
2022-09-18T13:36:11.096Z,992.82
2022-09-18T13:41:11.023Z,992.81
2022-09-18T13:46:10.956Z,992.83
2022-09-18T13:51:10.877Z,992.83
2022-09-18T13:56:10.820Z,992.72
2022-09-18T14:01:10.835Z,992.52
2022-09-18T14:06:10.688Z,992.44
2022-09-18T14:11:17.758Z,992.53
2022-09-18T14:16:10.597Z,992.48
2022-09-18T14:21:10.482Z,992.57
2022-09-18T14:26:10.428Z,992.34
2022-09-18T14:31:10.439Z,992.50
2022-09-18T14:36:14.520Z,992.56
2022-09-18T14:41:10.227Z,992.54
2022-09-18T14:46:10.215Z,992.51
2022-09-18T14:51:10.102Z,992.47
2022-09-18T14:56:10.048Z,992.37
2022-09-18T15:01:10.011Z,992.50
2022-09-18T15:06:09.921Z,992.60
2022-09-18T15:11:09.852Z,992.45
2022-09-18T15:16:09.856Z,992.32
2022-09-18T15:21:09.731Z,992.24
2022-09-18T15:26:09.675Z,992.26
2022-09-18T15:31:09.678Z,992.28
2022-09-18T15:36:09.556Z,992.30
2022-09-18T15:41:09.484Z,992.29
2022-09-18T15:46:09.426Z,992.11
2022-09-18T15:51:09.376Z,992.23
2022-09-18T15:56:09.310Z,992.14
2022-09-18T16:01:09.312Z,992.14
2022-09-18T16:06:09.164Z,992.26
2022-09-18T16:11:09.089Z,992.30
2022-09-18T16:16:09.127Z,992.14
2022-09-18T16:21:08.956Z,992.23
2022-09-18T16:26:08.895Z,992.30
2022-09-18T16:31:08.872Z,992.27
2022-09-18T16:36:08.763Z,992.17
2022-09-18T16:41:08.691Z,992.26
2022-09-18T16:46:08.632Z,992.31
2022-09-18T16:51:08.557Z,992.31
2022-09-18T16:56:08.500Z,992.28
2022-09-18T17:01:08.547Z,992.23
2022-09-18T17:06:08.368Z,992.25
2022-09-18T17:11:08.292Z,992.26
2022-09-18T17:16:08.271Z,992.28
2022-09-18T17:21:08.161Z,992.34
2022-09-18T17:26:08.102Z,992.36
2022-09-18T17:31:08.062Z,992.37
2022-09-18T17:36:07.971Z,992.47
2022-09-18T17:41:07.899Z,992.51
2022-09-18T17:46:07.841Z,992.56
2022-09-18T17:51:07.768Z,992.70
2022-09-18T17:56:07.709Z,992.85
2022-09-18T18:01:07.751Z,992.88
2022-09-18T18:06:07.579Z,992.84
2022-09-18T18:11:07.513Z,992.76
2022-09-18T18:16:07.495Z,992.90
2022-09-18T18:21:07.377Z,992.77
2022-09-18T18:26:07.317Z,992.49
2022-09-18T18:31:07.322Z,992.44
2022-09-18T18:36:07.186Z,992.49
2022-09-18T18:41:07.114Z,992.51
2022-09-18T18:46:07.059Z,992.55
2022-09-18T18:51:06.982Z,992.50
2022-09-18T18:56:06.925Z,992.43
2022-09-18T19:01:07.027Z,992.44
2022-09-18T19:06:06.794Z,992.37
2022-09-18T19:11:06.721Z,992.37
2022-09-18T19:16:06.734Z,992.44
2022-09-18T19:21:06.584Z,992.45
2022-09-18T19:26:06.528Z,992.34
2022-09-18T19:31:06.523Z,992.28
2022-09-18T19:36:06.395Z,992.35
2022-09-18T19:41:06.332Z,992.31
2022-09-18T19:46:06.261Z,992.31
2022-09-18T19:51:06.342Z,992.18
2022-09-18T19:56:06.381Z,992.18
2022-09-18T20:01:06.411Z,992.22
2022-09-18T20:06:06.350Z,992.28
2022-09-18T20:11:06.327Z,992.18
2022-09-18T20:16:06.452Z,992.13
2022-09-18T20:21:05.796Z,992.05
2022-09-18T20:26:05.739Z,992.09
2022-09-18T20:31:05.711Z,992.07
2022-09-18T20:36:05.605Z,992.05
2022-09-18T20:41:06.956Z,992.05
2022-09-18T20:46:05.474Z,992.01
2022-09-18T20:51:05.406Z,992.04
2022-09-18T20:56:05.342Z,991.94
2022-09-18T21:01:05.333Z,991.95
2022-09-18T21:06:21.456Z,991.94
2022-09-18T21:11:06.432Z,991.98
2022-09-18T21:16:05.161Z,991.87
2022-09-18T21:21:05.007Z,991.93
2022-09-18T21:26:04.951Z,991.98
2022-09-18T21:31:04.928Z,991.99
2022-09-18T21:36:04.821Z,991.97
2022-09-18T21:41:04.750Z,991.95
2022-09-18T21:46:04.690Z,991.95
2022-09-18T21:51:04.618Z,991.88
2022-09-18T21:56:04.560Z,991.93
2022-09-18T22:01:04.522Z,991.92
2022-09-18T22:06:04.431Z,991.88
2022-09-18T22:11:04.358Z,991.84
2022-09-18T22:16:04.363Z,991.88
2022-09-18T22:21:04.226Z,991.93
2022-09-18T22:26:04.171Z,991.90
2022-09-18T22:31:04.217Z,991.87
2022-09-18T22:36:04.036Z,991.95
2022-09-18T22:41:03.963Z,991.96
2022-09-18T22:46:03.905Z,991.92
2022-09-18T22:51:03.834Z,992.02
2022-09-18T22:56:03.775Z,991.96
2022-09-18T23:01:03.702Z,991.89
2022-09-18T23:06:03.642Z,991.95
2022-09-18T23:11:03.569Z,991.90
2022-09-18T23:16:03.550Z,991.95
2022-09-18T23:21:03.438Z,991.98
2022-09-18T23:26:03.380Z,991.96
2022-09-18T23:31:03.323Z,991.94
2022-09-18T23:36:03.248Z,991.93
2022-09-18T23:41:03.176Z,991.94
2022-09-18T23:46:03.126Z,991.99
2022-09-18T23:51:03.042Z,991.97
2022-09-18T23:56:02.983Z,991.98
